Austin, AR

7:53 AM CDT on August 27, 2014 (GMT -0500)
Shiloh | Change Station
CLOSE
Current Station
Personal Weather Station
Location: Cabot, AR
Elevation: 295 ft
Nearby Weather Stations
Active Advisory: Special Statement

Elev 295 ft 34.98 °N, 92.00 °W | Updated 3 minutes ago

Clear
Clear
78.1 °F
Feels Like 81 °F
N
0.7
Wind Variable Wind from SW
Gusts 1.6 mph

Today
High -- | Low -- °F
--% Chance of Precip.
Yesterday
High -- | Low -- °F
Precip. -- in
6:36 AM 7:41 PM
Waxing Crescent, 3% visible
Pressure 30.07 in
Visibility 10.0 miles
Clouds Clear
Heat Index 81 °F
Dew Point 76 °F
Humidity 94%
Rainfall 0.00 in
Snow Depth Not available.
UV 0 out of 12
Pollen 10.00 out of 12
Air Quality Not available.
Flu Activity Not available.
METAR KLRF 271158Z AUTO 13002KT 10SM CLR 23/23 A3007 RMK AO2 SLP182 60000 T02310225 10250 20230 51007

More Conditions Fewer Conditions

Pressure 30.07 in
Visibility 10.0 miles
Clouds Clear
Heat Index 81 °F
Dew Point 76 °F
Humidity 94%
Rainfall 0.00 in
Snow Depth Not available.
UV 0 out of 12
Pollen 10.00 out of 12
Air Quality Not available.
Flu Activity Not available.
METAR KLRF 271158Z AUTO 13002KT 10SM CLR 23/23 A3007 RMK AO2 SLP182 60000 T02310225 10250 20230 51007

More Conditions Fewer Conditions

10-Day Weather Forecast

Almanac

Astronomy

Aug. 27, 2014 Rise Set
Actual Time 6:36 AM CDT 7:41 PM CDT
Civil Twilight 6:10 AM CDT 8:07 PM CDT
Nautical Twilight 5:39 AM CDT 8:38 PM CDT
Astronomical Twilight 5:07 AM CDT 9:10 PM CDT
Moon 8:27 AM CDT 8:40 PM CDT
Length of Visible Light 13h 56m
Length of Day
13h 04m
Tomorrow will be 2m 3s shorter.
Waxing Crescent, 3% of the Moon is Illuminated
Today
Waxing Crescent
Sep 2
First Quarter
Sep 8
Full
Sep 15
Last Quarter
Sep 24
New

Today's Extremes

State Highs State Lows

Community

WunderPhotos

Upload Photos

1,747,676 photos uploaded!

Nearby

Snow Depth

Station Depth Elevation
No new snow has been reported.

Earthquake Activity

City Distance Mag. Time & Date
No recent earthquake activity has been reported nearby.
Minimum magnitude displayed is 2.5.

Coastal Water Temperatures

Place Temperature
No Stations Reporting

Nearby Weather Stations